Time;durP1;ratioP1;P1;durP2;ratioP2;P2;SDS_P1;SDS_P2;PMS_P1;PMS_P2;Temp;Humidity;BMP_temperature;BMP_pressure;BME280_temperature;BME280_humidity;BME280_pressure;Samples;Min_cycle;Max_cycle;Signal;HPM_P1;HPM_P2
2021/12/17 00:00:22;;;;;;;;;;;;;;;0.24;100.00;93809.78;5069397;28;19920;-84
2021/12/17 00:03:10;;;;;;;;;;;;;;;0.24;100.00;93819.88;5069064;28;19924;-85
2021/12/17 00:05:46;;;;;;;;;;;;;;;0.26;100.00;93812.97;5069256;28;19927;-86
2021/12/17 00:08:14;;;;;;;;;;;;;;;0.32;100.00;93808.34;5069404;28;19925;-86
2021/12/17 00:10:41;;;;;;;;;;;;;;;0.38;100.00;93816.16;5069752;28;19931;-86
2021/12/17 00:13:08;;;;;;;;;;;;;;;0.35;100.00;93813.09;5069887;28;19931;-86
2021/12/17 00:15:35;;;;;;;;;;;;;;;0.44;100.00;93817.38;5069926;28;19948;-87
2021/12/17 00:18:10;;;;;;;;;;;;;;;0.49;100.00;93820.31;5069756;28;19920;-86
2021/12/17 00:40:07;;;;;;;;;;;;;;;0.48;100.00;93822.97;5068806;28;19931;-87
2021/12/17 00:48:35;;;;;;;;;;;;;;;0.86;100.00;93834.00;5091527;28;19970;-85
2021/12/17 00:51:13;;;;;;;;;;;;;;;0.82;100.00;93831.91;5091651;28;19966;-85
2021/12/17 00:53:40;;;;;;;;;;;;;;;0.62;100.00;93827.63;5092429;28;20383;-85
2021/12/17 00:56:08;;;;;;;;;;;;;;;0.47;100.00;93829.75;5092643;28;19920;-85
2021/12/17 00:58:35;;;;;;;;;;;;;;;0.60;100.00;93824.44;5092421;28;19920;-85
2021/12/17 01:01:01;;;;;;;;;;;;;;;0.58;100.00;93822.97;5092567;28;19939;-85
2021/12/17 01:03:28;;;;;;;;;;;;;;;0.51;100.00;93826.03;5092472;28;20373;-84
2021/12/17 01:05:55;;;;;;;;;;;;;;;0.35;100.00;93818.97;5092503;28;20270;-84
2021/12/17 01:08:21;;;;;;;;;;;;;;;0.47;100.00;93817.09;5092390;28;19920;-83
2021/12/17 01:10:50;;;;;;;;;;;;;;;0.40;100.00;93823.63;5092043;28;20098;-83
2021/12/17 01:13:18;;;;;;;;;;;;;;;0.46;100.00;93827.38;5092171;28;20325;-81
2021/12/17 01:15:45;;;;;;;;;;;;;;;0.27;100.00;93823.88;5092529;28;19920;-84
2021/12/17 01:18:15;;;;;;;;;;;;;;;0.32;100.00;93816.69;5092631;28;19920;-83
2021/12/17 01:21:18;;;;;;;;;;;;;;;0.25;100.00;93818.97;5092835;28;19920;-84
2021/12/17 01:24:02;;;;;;;;;;;;;;;0.30;100.00;93813.50;5092415;28;19926;-83
2021/12/17 01:43:00;;;;;;;;;;;;;;;0.17;100.00;93801.13;5065162;28;19920;-83
2021/12/17 01:45:32;;;;;;;;;;;;;;;0.31;100.00;93789.03;5091462;28;20474;-82
2021/12/17 01:48:01;;;;;;;;;;;;;;;0.40;100.00;93793.28;5091662;28;19957;-81
2021/12/17 01:56:15;;;;;;;;;;;;;;;0.34;100.00;93791.31;5091308;28;20265;-82
2021/12/17 02:01:28;;;;;;;;;;;;;;;0.40;100.00;93793.28;5091588;28;20382;-82
2021/12/17 02:03:56;;;;;;;;;;;;;;;0.36;100.00;93790.25;5091401;28;20031;-83
2021/12/17 02:06:23;;;;;;;;;;;;;;;0.29;100.00;93789.19;5091220;28;19920;-83
2021/12/17 02:08:53;;;;;;;;;;;;;;;0.17;100.00;93803.66;5090845;28;20017;-83
2021/12/17 02:11:58;;;;;;;;;;;;;;;0.29;100.00;93794.22;5091285;28;19920;-83
2021/12/17 02:20:10;;;;;;;;;;;;;;;0.36;100.00;93771.75;5090737;28;20440;-81
2021/12/17 02:23:09;;;;;;;;;;;;;;;0.50;100.00;93768.00;5090564;28;19920;-81
2021/12/17 02:31:16;;;;;;;;;;;;;;;0.57;100.00;93765.75;5090800;28;19927;-81
2021/12/17 02:33:43;;;;;;;;;;;;;;;0.63;100.00;93765.22;5090575;28;19920;-82
2021/12/17 02:36:09;;;;;;;;;;;;;;;0.61;100.00;93765.34;5090740;28;19958;-81
2021/12/17 02:38:39;;;;;;;;;;;;;;;0.45;100.00;93765.09;5090784;28;19920;-82
2021/12/17 02:46:35;;;;;;;;;;;;;;;0.71;100.00;93762.00;5090634;28;20383;-83
2021/12/17 02:49:02;;;;;;;;;;;;;;;0.83;100.00;93755.88;5090447;28;19920;-83
2021/12/17 02:51:29;;;;;;;;;;;;;;;0.94;100.00;93754.94;5090417;28;19931;-83
2021/12/17 02:53:59;;;;;;;;;;;;;;;1.02;100.00;93760.09;5090068;28;19920;-83
2021/12/17 02:56:27;;;;;;;;;;;;;;;1.07;100.00;93767.28;5090273;28;19920;-83
2021/12/17 02:58:54;;;;;;;;;;;;;;;0.98;100.00;93763.84;5090325;28;19920;-83
2021/12/17 03:01:22;;;;;;;;;;;;;;;1.02;100.00;93764.38;5090880;28;19924;-82
2021/12/17 03:03:50;;;;;;;;;;;;;;;1.13;100.00;93763.38;5090578;28;20033;-82
2021/12/17 03:06:17;;;;;;;;;;;;;;;1.19;100.00;93767.91;5090782;28;19971;-82
2021/12/17 03:08:47;;;;;;;;;;;;;;;1.19;100.00;93765.38;5090103;28;19920;-82
2021/12/17 03:11:16;;;;;;;;;;;;;;;1.20;100.00;93762.69;5090642;28;20270;-82
2021/12/17 03:13:44;;;;;;;;;;;;;;;1.26;100.00;93758.03;5090278;28;19927;-82
2021/12/17 03:16:23;;;;;;;;;;;;;;;1.37;100.00;93749.44;5089786;28;19927;-82
2021/12/17 03:19:00;;;;;;;;;;;;;;;1.44;100.00;93747.97;5089829;28;20259;-82
2021/12/17 03:24:11;;;;;;;;;;;;;;;1.36;100.00;93756.25;5089630;28;19931;-83
2021/12/17 03:26:39;;;;;;;;;;;;;;;1.41;100.00;93740.66;5085987;28;20358;-83
2021/12/17 03:29:08;;;;;;;;;;;;;;;1.39;100.00;93745.06;5088281;28;19978;-83
2021/12/17 03:31:35;;;;;;;;;;;;;;;1.38;100.00;93740.94;5089735;28;19920;-83
2021/12/17 03:34:15;;;;;;;;;;;;;;;1.22;100.00;93744.84;5090087;28;20375;-83
2021/12/17 03:36:42;;;;;;;;;;;;;;;1.01;100.00;93752.63;5089680;28;19931;-82
2021/12/17 03:39:08;;;;;;;;;;;;;;;0.94;100.00;93752.41;5089472;28;19924;-83
2021/12/17 03:41:37;;;;;;;;;;;;;;;1.01;100.00;93748.38;5089647;28;19920;-83
2021/12/17 03:44:06;;;;;;;;;;;;;;;1.02;100.00;93747.44;5089566;28;20018;-83
2021/12/17 03:46:33;;;;;;;;;;;;;;;1.09;100.00;93750.22;5090164;28;19927;-83
2021/12/17 03:49:02;;;;;;;;;;;;;;;1.18;100.00;93744.34;5090248;28;20290;-83
2021/12/17 03:51:28;;;;;;;;;;;;;;;1.11;100.00;93755.16;5090161;28;19930;-83
2021/12/17 03:53:56;;;;;;;;;;;;;;;1.14;100.00;93739.69;5089365;28;19925;-83
2021/12/17 03:56:24;;;;;;;;;;;;;;;1.23;100.00;93748.16;5089600;28;19924;-84
2021/12/17 03:58:52;;;;;;;;;;;;;;;1.30;100.00;93747.47;5089427;28;20581;-84
2021/12/17 04:01:21;;;;;;;;;;;;;;;1.31;100.00;93738.16;5089867;28;19920;-84
2021/12/17 04:03:48;;;;;;;;;;;;;;;1.39;100.00;93734.94;5089666;28;20237;-84
2021/12/17 04:06:14;;;;;;;;;;;;;;;1.47;100.00;93740.09;5089744;28;19927;-84
2021/12/17 04:08:41;;;;;;;;;;;;;;;1.57;100.00;93732.47;5093559;28;19924;-84
2021/12/17 04:11:16;;;;;;;;;;;;;;;1.67;100.00;93740.00;5093344;28;19931;-85
2021/12/17 04:13:43;;;;;;;;;;;;;;;1.66;100.00;93725.75;5093482;28;19920;-85
2021/12/17 04:16:11;;;;;;;;;;;;;;;1.59;100.00;93726.28;5093290;28;19924;-83
2021/12/17 04:18:40;;;;;;;;;;;;;;;1.61;100.00;93721.09;5093482;28;19924;-82
2021/12/17 04:21:13;;;;;;;;;;;;;;;1.55;100.00;93719.94;5093397;28;20014;-83
2021/12/17 04:23:40;;;;;;;;;;;;;;;1.51;100.00;93708.50;5092730;28;20383;-83
2021/12/17 04:26:06;;;;;;;;;;;;;;;1.51;100.00;93705.97;5093155;28;19920;-83
2021/12/17 04:28:36;;;;;;;;;;;;;;;1.55;100.00;93702.22;5093407;28;19924;-83
2021/12/17 04:31:02;;;;;;;;;;;;;;;1.58;100.00;93704.44;5092929;28;19928;-82
2021/12/17 04:33:29;;;;;;;;;;;;;;;1.62;100.00;93707.47;5092715;28;19923;-84
2021/12/17 04:35:57;;;;;;;;;;;;;;;1.65;100.00;93703.88;5092965;28;19926;-86
2021/12/17 04:38:26;;;;;;;;;;;;;;;1.66;100.00;93698.66;5092861;28;19927;-89
2021/12/17 04:40:53;;;;;;;;;;;;;;;1.69;100.00;93703.47;5093398;28;19920;-86
2021/12/17 04:43:33;;;;;;;;;;;;;;;1.71;100.00;93704.09;5093490;28;20331;-85
2021/12/17 04:46:13;;;;;;;;;;;;;;;1.73;100.00;93703.97;5093117;28;20305;-85
2021/12/17 04:59:37;;;;;;;;;;;;;;;1.73;100.00;93694.63;5093029;28;19928;-81
2021/12/17 05:02:04;;;;;;;;;;;;;;;1.71;100.00;93693.97;5092547;28;19925;-84
2021/12/17 05:04:31;;;;;;;;;;;;;;;1.71;100.00;93688.91;5092349;28;20006;-82
2021/12/17 05:06:59;;;;;;;;;;;;;;;1.72;100.00;93689.72;5092457;28;19978;-82
2021/12/17 05:09:33;;;;;;;;;;;;;;;1.73;100.00;93688.78;5092457;28;19924;-82
2021/12/17 05:20:26;;;;;;;;;;;;;;;1.70;100.00;93694.91;5091964;28;19926;-82
2021/12/17 05:22:57;;;;;;;;;;;;;;;1.72;100.00;93685.44;5091798;28;19924;-81
2021/12/17 05:25:26;;;;;;;;;;;;;;;1.71;100.00;93686.38;5092212;28;19924;-82
2021/12/17 05:27:53;;;;;;;;;;;;;;;1.73;100.00;93693.84;5091567;28;19924;-82
2021/12/17 05:30:19;;;;;;;;;;;;;;;1.71;100.00;93693.97;5092666;28;19924;-82
2021/12/17 05:32:46;;;;;;;;;;;;;;;1.71;100.00;93696.50;5092870;28;19924;-81
2021/12/17 05:35:12;;;;;;;;;;;;;;;1.71;100.00;93690.66;5092092;28;19935;-81
2021/12/17 05:37:39;;;;;;;;;;;;;;;1.71;100.00;93693.19;5091663;28;19925;-80
2021/12/17 05:40:08;;;;;;;;;;;;;;;1.70;100.00;93692.38;5091908;28;19921;-84
2021/12/17 05:42:34;;;;;;;;;;;;;;;1.70;100.00;93681.44;5091886;28;19920;-81
2021/12/17 05:45:08;;;;;;;;;;;;;;;1.70;100.00;93683.97;5091434;28;20292;-80
2021/12/17 05:47:35;;;;;;;;;;;;;;;1.72;100.00;93692.25;5091903;28;20027;-81
2021/12/17 05:50:01;;;;;;;;;;;;;;;1.68;100.00;93684.16;5091428;28;20161;-81
2021/12/17 05:52:28;;;;;;;;;;;;;;;1.68;100.00;93683.34;5091640;28;19932;-84
2021/12/17 05:54:54;;;;;;;;;;;;;;;1.67;100.00;93689.34;5091548;28;19955;-84
2021/12/17 05:57:22;;;;;;;;;;;;;;;1.68;100.00;93689.22;5091141;28;19924;-84
2021/12/17 05:59:49;;;;;;;;;;;;;;;1.67;100.00;93685.06;5091057;28;19931;-84
2021/12/17 06:02:18;;;;;;;;;;;;;;;1.68;100.00;93689.22;5091303;28;19932;-84
2021/12/17 06:04:45;;;;;;;;;;;;;;;1.67;100.00;93690.13;5091404;28;20321;-84
2021/12/17 06:07:11;;;;;;;;;;;;;;;1.65;100.00;93692.00;5091145;28;19931;-83
2021/12/17 06:09:38;;;;;;;;;;;;;;;1.66;100.00;93703.72;5088550;28;20458;-83
2021/12/17 06:12:05;;;;;;;;;;;;;;;1.69;100.00;93703.47;5089139;28;20325;-85
2021/12/17 06:14:33;;;;;;;;;;;;;;;1.70;100.00;93705.06;5089346;28;19928;-84
2021/12/17 06:17:00;;;;;;;;;;;;;;;1.70;100.00;93696.66;5091023;28;19927;-85
2021/12/17 06:19:26;;;;;;;;;;;;;;;1.64;100.00;93704.81;5090978;28;20292;-85
2021/12/17 06:21:53;;;;;;;;;;;;;;;1.64;100.00;93700.56;5091054;28;19927;-84
2021/12/17 06:24:22;;;;;;;;;;;;;;;1.70;100.00;93706.78;5090914;28;20405;-84
2021/12/17 06:26:49;;;;;;;;;;;;;;;1.71;100.00;93705.84;5090294;28;19924;-85
2021/12/17 06:29:17;;;;;;;;;;;;;;;1.69;100.00;93708.53;5089858;28;19924;-85
2021/12/17 06:32:02;;;;;;;;;;;;;;;1.46;100.00;93703.84;5090591;28;19924;-83
2021/12/17 06:34:30;;;;;;;;;;;;;;;1.47;100.00;93697.03;5090157;28;19924;-85
2021/12/17 06:36:57;;;;;;;;;;;;;;;1.54;100.00;93698.09;5090416;28;19985;-86
2021/12/17 06:39:24;;;;;;;;;;;;;;;1.48;100.00;93691.03;5090374;28;20006;-85
2021/12/17 06:41:50;;;;;;;;;;;;;;;1.49;100.00;93699.44;5090285;28;20019;-85
2021/12/17 06:44:22;;;;;;;;;;;;;;;1.53;100.00;93696.47;5090469;28;19924;-86
2021/12/17 06:46:56;;;;;;;;;;;;;;;1.39;100.00;93699.50;5089952;28;19924;-86
2021/12/17 06:49:28;;;;;;;;;;;;;;;1.39;100.00;93699.50;5090397;28;19959;-86
2021/12/17 06:54:56;;;;;;;;;;;;;;;1.51;100.00;93695.81;5090133;28;19930;-85
2021/12/17 07:00:18;;;;;;;;;;;;;;;1.63;100.00;93700.69;5090136;28;19924;-85
2021/12/17 07:11:19;;;;;;;;;;;;;;;1.73;100.00;93702.22;5090061;28;20012;-86
2021/12/17 07:22:03;;;;;;;;;;;;;;;1.80;100.00;93704.97;5082416;28;19920;-86
2021/12/17 07:35:38;;;;;;;;;;;;;;;1.87;100.00;93702.69;5086967;28;19920;-86
2021/12/17 07:40:59;;;;;;;;;;;;;;;1.93;100.00;93696.22;5040342;28;20375;-86
2021/12/17 07:43:29;;;;;;;;;;;;;;;1.93;100.00;93696.22;5093103;28;19927;-86
2021/12/17 07:45:57;;;;;;;;;;;;;;;1.93;100.00;93701.28;5090639;28;19970;-85
2021/12/17 07:48:23;;;;;;;;;;;;;;;1.94;100.00;93697.84;5093280;28;19924;-85
2021/12/17 07:50:50;;;;;;;;;;;;;;;1.94;100.00;93693.56;5092825;28;19920;-85
2021/12/17 07:53:22;;;;;;;;;;;;;;;1.94;100.00;93693.56;5092366;28;20267;-86
2021/12/17 07:55:49;;;;;;;;;;;;;;;1.94;100.00;93702.91;5086231;28;19924;-86
2021/12/17 07:58:17;;;;;;;;;;;;;;;1.94;100.00;93702.91;5083626;28;20356;-86
2021/12/17 08:00:43;;;;;;;;;;;;;;;1.95;100.00;93699.44;5087435;28;19920;-86
2021/12/17 08:03:12;;;;;;;;;;;;;;;1.97;100.00;93707.66;5082507;28;19924;-86
2021/12/17 08:05:39;;;;;;;;;;;;;;;1.99;100.00;93698.22;5087960;28;19971;-85
2021/12/17 08:08:05;;;;;;;;;;;;;;;2.02;100.00;93704.69;5082753;28;20244;-86
2021/12/17 08:10:33;;;;;;;;;;;;;;;2.00;100.00;93708.19;5083659;28;20378;-86
2021/12/17 08:13:00;;;;;;;;;;;;;;;2.02;100.00;93715.63;5082727;28;19924;-86
2021/12/17 08:15:33;;;;;;;;;;;;;;;2.03;100.00;93717.22;5091492;28;20096;-86
2021/12/17 08:26:28;;;;;;;;;;;;;;;2.06;100.00;93711.06;5093189;28;19970;-86
2021/12/17 08:29:23;;;;;;;;;;;;;;;2.06;100.00;93709.34;5092739;28;19920;-85
2021/12/17 08:31:51;;;;;;;;;;;;;;;2.09;100.00;93709.03;5080016;28;20322;-86
2021/12/17 08:34:18;;;;;;;;;;;;;;;2.10;100.00;93702.25;5079621;28;19927;-86
2021/12/17 08:36:45;;;;;;;;;;;;;;;2.12;100.00;93706.22;5093251;28;19924;-85
2021/12/17 08:39:11;;;;;;;;;;;;;;;2.14;100.00;93694.19;5092722;28;19920;-85
2021/12/17 08:41:40;;;;;;;;;;;;;;;2.14;100.00;93690.88;5093244;28;19935;-85
2021/12/17 08:44:06;;;;;;;;;;;;;;;2.10;100.00;93685.31;5092506;28;19967;-85
2021/12/17 08:46:34;;;;;;;;;;;;;;;2.09;100.00;93685.47;5092758;28;19943;-86
2021/12/17 08:49:02;;;;;;;;;;;;;;;2.10;100.00;93681.97;5091925;28;19998;-85
2021/12/17 08:51:29;;;;;;;;;;;;;;;2.15;100.00;93677.28;5092751;28;21526;-85
2021/12/17 08:53:55;;;;;;;;;;;;;;;2.16;100.00;93668.72;5091970;28;20368;-85
2021/12/17 08:56:23;;;;;;;;;;;;;;;2.23;100.00;93672.25;5092750;28;19920;-85
2021/12/17 08:58:51;;;;;;;;;;;;;;;2.28;100.00;93659.16;5092106;28;19924;-85
2021/12/17 09:01:19;;;;;;;;;;;;;;;2.31;100.00;93663.91;5092126;28;19924;-85
2021/12/17 09:03:47;;;;;;;;;;;;;;;2.31;100.00;93665.66;5092220;28;20011;-85
2021/12/17 09:06:15;;;;;;;;;;;;;;;2.30;100.00;93652.19;5092722;28;19931;-85
2021/12/17 09:08:42;;;;;;;;;;;;;;;2.31;100.00;93661.38;5092409;28;19924;-85
2021/12/17 09:11:09;;;;;;;;;;;;;;;2.11;100.00;93626.09;5091990;28;19924;-85
2021/12/17 09:13:35;;;;;;;;;;;;;;;2.33;100.00;93651.91;5092340;28;19924;-84
2021/12/17 09:16:06;;;;;;;;;;;;;;;2.29;100.00;93650.59;5092269;28;19935;-85
2021/12/17 09:18:33;;;;;;;;;;;;;;;2.28;100.00;93646.47;5091852;28;19927;-85
2021/12/17 09:20:59;;;;;;;;;;;;;;;2.33;100.00;93638.41;5092208;28;19931;-85
2021/12/17 09:23:28;;;;;;;;;;;;;;;2.34;100.00;93640.00;5092170;28;19920;-84
2021/12/17 09:25:54;;;;;;;;;;;;;;;2.29;100.00;93640.47;5092400;28;19920;-85
2021/12/17 09:28:21;;;;;;;;;;;;;;;2.23;100.00;93636.75;5091911;28;19924;-85
2021/12/17 09:30:48;;;;;;;;;;;;;;;2.18;100.00;93631.34;5092058;28;19943;-85
2021/12/17 09:33:15;;;;;;;;;;;;;;;2.14;100.00;93633.38;5091957;28;19924;-84
2021/12/17 09:35:41;;;;;;;;;;;;;;;2.24;100.00;93629.97;5091882;28;19920;-85
2021/12/17 09:38:08;;;;;;;;;;;;;;;2.29;100.00;93627.78;5091828;28;19924;-84
2021/12/17 09:40:36;;;;;;;;;;;;;;;2.35;100.00;93629.72;5091644;28;19926;-84
2021/12/17 09:43:03;;;;;;;;;;;;;;;2.44;100.00;93612.81;5091403;28;19920;-84
2021/12/17 09:45:29;;;;;;;;;;;;;;;2.49;100.00;93614.91;5091169;28;20026;-86
2021/12/17 09:47:57;;;;;;;;;;;;;;;2.52;100.00;93612.88;5091584;28;19920;-86
2021/12/17 09:50:24;;;;;;;;;;;;;;;2.57;100.00;93609.88;5091382;28;19965;-86
2021/12/17 09:52:53;;;;;;;;;;;;;;;2.60;100.00;93601.19;5091340;28;19920;-86
2021/12/17 09:55:20;;;;;;;;;;;;;;;2.55;100.00;93609.25;5091279;28;20371;-85
2021/12/17 09:57:48;;;;;;;;;;;;;;;2.57;100.00;93599.75;5091498;28;19956;-86
2021/12/17 10:00:16;;;;;;;;;;;;;;;2.31;100.00;93597.22;5091630;28;19927;-86
2021/12/17 10:02:44;;;;;;;;;;;;;;;2.41;100.00;93590.31;5091437;28;19966;-86
2021/12/17 10:05:13;;;;;;;;;;;;;;;2.26;100.00;93590.03;5089869;28;19920;-86
2021/12/17 10:07:41;;;;;;;;;;;;;;;2.31;100.00;93580.25;5091279;28;19924;-86
2021/12/17 10:10:08;;;;;;;;;;;;;;;2.28;100.00;93578.03;5091205;28;19965;-86
2021/12/17 10:12:35;;;;;;;;;;;;;;;2.18;100.00;93572.28;5091317;28;19927;-86
2021/12/17 10:15:07;;;;;;;;;;;;;;;2.09;100.00;93573.97;5091089;28;19924;-86
2021/12/17 10:17:34;;;;;;;;;;;;;;;1.76;100.00;93569.44;5090812;28;19930;-86
2021/12/17 10:20:00;;;;;;;;;;;;;;;1.81;100.00;93566.47;5090992;28;20383;-85
2021/12/17 10:22:29;;;;;;;;;;;;;;;1.78;100.00;93561.69;5090694;28;19927;-85
2021/12/17 10:25:00;;;;;;;;;;;;;;;1.77;100.00;93560.09;5090659;28;20448;-85
2021/12/17 10:27:28;;;;;;;;;;;;;;;1.82;100.00;93545.25;5090784;28;20271;-85
2021/12/17 10:29:55;;;;;;;;;;;;;;;1.99;100.00;93530.97;5090803;28;19931;-86
2021/12/17 10:32:24;;;;;;;;;;;;;;;2.12;100.00;93533.91;5090936;28;19920;-86
2021/12/17 10:35:01;;;;;;;;;;;;;;;2.05;100.00;93534.66;5090765;28;19924;-85
2021/12/17 10:37:32;;;;;;;;;;;;;;;1.90;100.00;93526.78;5090713;28;20400;-85
2021/12/17 10:39:59;;;;;;;;;;;;;;;1.87;100.00;93536.25;5091059;28;19931;-85
2021/12/17 10:42:30;;;;;;;;;;;;;;;1.90;100.00;93519.97;5090570;28;19920;-85
2021/12/17 10:45:00;;;;;;;;;;;;;;;1.97;100.00;93505.78;5090384;28;19920;-85
2021/12/17 10:47:33;;;;;;;;;;;;;;;2.14;100.00;93508.41;5082014;28;19931;-86
2021/12/17 10:50:02;;;;;;;;;;;;;;;2.13;100.00;93501.75;5070631;28;20279;-83
2021/12/17 10:52:35;;;;;;;;;;;;;;;2.15;100.00;93494.78;5070121;28;19924;-86
2021/12/17 10:55:08;;;;;;;;;;;;;;;2.23;100.00;93494.81;5070304;28;20363;-83
2021/12/17 10:57:35;;;;;;;;;;;;;;;2.31;100.00;93493.28;5070198;28;19920;-84
2021/12/17 11:00:04;;;;;;;;;;;;;;;2.38;100.00;93494.25;5070366;28;20386;-84
2021/12/17 11:02:33;;;;;;;;;;;;;;;2.47;100.00;93497.63;5070160;28;20359;-83
2021/12/17 11:05:11;;;;;;;;;;;;;;;2.53;100.00;93504.63;5070162;28;19968;-84
2021/12/17 11:07:37;;;;;;;;;;;;;;;2.34;100.00;93503.13;5070106;28;20268;-84
2021/12/17 11:10:04;;;;;;;;;;;;;;;2.13;100.00;93497.47;5072974;28;19928;-83
2021/12/17 11:12:32;;;;;;;;;;;;;;;2.14;100.00;93493.22;5080410;28;19927;-82
2021/12/17 11:15:19;;;;;;;;;;;;;;;2.17;100.00;93474.38;5075589;28;20535;-82
2021/12/17 11:17:48;;;;;;;;;;;;;;;2.01;100.00;93486.00;5072528;28;19928;-83
2021/12/17 11:20:16;;;;;;;;;;;;;;;1.96;100.00;93481.41;5080157;28;19925;-83
2021/12/17 11:22:45;;;;;;;;;;;;;;;1.89;100.00;93477.84;5084981;28;19950;-84
2021/12/17 11:25:11;;;;;;;;;;;;;;;1.83;100.00;93471.66;5090269;28;19944;-83
2021/12/17 11:27:38;;;;;;;;;;;;;;;1.82;100.00;93474.34;5089780;28;20367;-83
2021/12/17 11:30:05;;;;;;;;;;;;;;;1.50;100.00;93480.78;5090160;28;19924;-82
2021/12/17 11:32:32;;;;;;;;;;;;;;;1.50;100.00;93479.03;5089966;28;19920;-82
2021/12/17 11:35:00;;;;;;;;;;;;;;;1.55;100.00;93464.22;5090082;28;20295;-83
2021/12/17 11:37:27;;;;;;;;;;;;;;;1.48;100.00;93467.47;5089785;28;20287;-82
2021/12/17 11:39:57;;;;;;;;;;;;;;;1.46;100.00;93468.41;5090198;28;19942;-82
2021/12/17 11:42:29;;;;;;;;;;;;;;;1.38;100.00;93458.22;5086086;28;19920;-82
2021/12/17 11:47:37;;;;;;;;;;;;;;;1.39;100.00;93452.22;5088011;28;19931;-81
2021/12/17 11:50:06;;;;;;;;;;;;;;;1.53;100.00;93455.94;5089772;28;19927;-81
2021/12/17 11:52:40;;;;;;;;;;;;;;;1.52;100.00;93456.13;5089658;28;19942;-81
2021/12/17 11:55:25;;;;;;;;;;;;;;;1.49;100.00;93439.47;5089873;28;19928;-81
2021/12/17 11:57:52;;;;;;;;;;;;;;;1.50;100.00;93448.66;5089190;28;19931;-81
2021/12/17 12:00:23;;;;;;;;;;;;;;;1.47;100.00;93448.94;5089710;28;19920;-82
2021/12/17 12:02:51;;;;;;;;;;;;;;;1.51;100.00;93449.44;5089212;28;19920;-82
2021/12/17 12:05:34;;;;;;;;;;;;;;;1.50;100.00;93455.44;5089425;28;19927;-82
2021/12/17 12:08:15;;;;;;;;;;;;;;;1.48;100.00;93452.28;5090249;28;20011;-82
2021/12/17 12:10:42;;;;;;;;;;;;;;;1.41;100.00;93449.53;5089121;28;20007;-82
2021/12/17 12:13:08;;;;;;;;;;;;;;;1.52;100.00;93444.25;5090232;28;19932;-83
2021/12/17 12:15:37;;;;;;;;;;;;;;;1.48;100.00;93442.16;5089774;28;19920;-82
2021/12/17 12:18:08;;;;;;;;;;;;;;;1.21;100.00;93452.25;5089479;28;20739;-82
2021/12/17 12:20:40;;;;;;;;;;;;;;;0.98;100.00;93446.84;5089637;28;19924;-80
2021/12/17 12:23:17;;;;;;;;;;;;;;;0.76;100.00;93449.66;5089678;28;19924;-80
2021/12/17 12:25:45;;;;;;;;;;;;;;;0.74;100.00;93453.25;5089538;28;19926;-80
2021/12/17 12:28:13;;;;;;;;;;;;;;;0.67;100.00;93442.91;5090776;28;19927;-80
2021/12/17 12:30:42;;;;;;;;;;;;;;;0.75;100.00;93448.03;5092980;28;19924;-80
2021/12/17 12:33:09;;;;;;;;;;;;;;;0.72;100.00;93442.47;5092854;28;20333;-81
2021/12/17 12:35:36;;;;;;;;;;;;;;;0.69;100.00;93435.19;5092737;28;19932;-80
2021/12/17 12:38:17;;;;;;;;;;;;;;;0.93;100.00;93435.41;5092751;28;19920;-80
2021/12/17 12:40:51;;;;;;;;;;;;;;;1.08;100.00;93444.22;5093633;28;20672;-80
2021/12/17 12:43:27;;;;;;;;;;;;;;;1.10;100.00;93444.88;5093567;28;19920;-80
2021/12/17 12:45:54;;;;;;;;;;;;;;;1.05;100.00;93445.31;5092734;28;19969;-80
2021/12/17 12:48:31;;;;;;;;;;;;;;;1.24;100.00;93433.47;5092747;28;19924;-81
2021/12/17 12:51:13;;;;;;;;;;;;;;;1.17;100.00;93439.06;5092779;28;20370;-80
2021/12/17 12:53:45;;;;;;;;;;;;;;;1.05;100.00;93440.25;5092564;28;19920;-80
2021/12/17 12:56:16;;;;;;;;;;;;;;;1.22;100.00;93448.78;5092375;28;20552;-81
2021/12/17 12:58:47;;;;;;;;;;;;;;;1.23;100.00;93447.03;5092300;28;20421;-81
2021/12/17 13:01:15;;;;;;;;;;;;;;;1.34;100.00;93444.25;5091969;28;19920;-81
2021/12/17 13:03:42;;;;;;;;;;;;;;;1.44;100.00;93449.25;5091915;28;19920;-81
2021/12/17 13:06:15;;;;;;;;;;;;;;;1.41;100.00;93441.94;5090444;28;20438;-80
2021/12/17 13:08:52;;;;;;;;;;;;;;;1.26;100.00;93442.50;5089175;28;19927;-80
2021/12/17 13:11:19;;;;;;;;;;;;;;;1.16;100.00;93436.72;5083897;28;19923;-81
2021/12/17 13:13:51;;;;;;;;;;;;;;;1.15;100.00;93420.72;5092291;28;19924;-82
2021/12/17 13:16:22;;;;;;;;;;;;;;;1.31;100.00;93386.38;5092414;28;19927;-81
2021/12/17 13:21:44;;;;;;;;;;;;;;;1.33;100.00;93403.00;5092002;28;19927;-82
2021/12/17 13:24:14;;;;;;;;;;;;;;;1.38;100.00;93397.47;5091940;28;20030;-82
2021/12/17 13:26:42;;;;;;;;;;;;;;;1.41;100.00;93399.72;5092162;28;19978;-82
2021/12/17 13:29:12;;;;;;;;;;;;;;;1.36;100.00;93416.28;5091723;28;19924;-82
2021/12/17 13:31:44;;;;;;;;;;;;;;;1.08;100.00;93407.09;5087789;28;20427;-82
2021/12/17 13:34:13;;;;;;;;;;;;;;;1.06;100.00;93399.63;5089402;28;19924;-82
2021/12/17 13:36:44;;;;;;;;;;;;;;;0.96;100.00;93400.66;5092352;28;19920;-81
2021/12/17 13:39:13;;;;;;;;;;;;;;;1.01;100.00;93390.88;5092131;28;19935;-81
2021/12/17 13:41:41;;;;;;;;;;;;;;;0.98;100.00;93396.25;5091749;28;20358;-82
2021/12/17 13:44:22;;;;;;;;;;;;;;;0.88;100.00;93407.22;5091635;28;19920;-82
2021/12/17 13:46:49;;;;;;;;;;;;;;;0.80;100.00;93405.41;5091689;28;19988;-83
2021/12/17 13:49:15;;;;;;;;;;;;;;;0.86;100.00;93409.13;5091852;28;19921;-82
2021/12/17 13:51:42;;;;;;;;;;;;;;;0.81;100.00;93413.81;5091366;28;19942;-83
2021/12/17 13:54:09;;;;;;;;;;;;;;;0.86;100.00;93403.25;5091084;28;19931;-84
2021/12/17 13:56:37;;;;;;;;;;;;;;;0.95;100.00;93396.53;5091594;28;20257;-84
2021/12/17 13:59:04;;;;;;;;;;;;;;;1.07;100.00;93395.38;5091283;28;19920;-84
2021/12/17 14:01:30;;;;;;;;;;;;;;;1.24;100.00;93398.03;5091467;28;20437;-84
2021/12/17 14:03:57;;;;;;;;;;;;;;;1.22;100.00;93397.38;5091236;28;19920;-83
2021/12/17 14:06:27;;;;;;;;;;;;;;;1.28;100.00;93392.50;5091019;28;19931;-83
2021/12/17 14:08:54;;;;;;;;;;;;;;;1.35;100.00;93387.66;5090966;28;20386;-84
2021/12/17 14:11:24;;;;;;;;;;;;;;;1.42;100.00;93381.06;5091402;28;20256;-83
2021/12/17 14:13:53;;;;;;;;;;;;;;;1.08;100.00;93389.38;5090922;28;20363;-82
2021/12/17 14:16:29;;;;;;;;;;;;;;;0.80;100.00;93397.84;5090814;28;19920;-82
2021/12/17 14:18:57;;;;;;;;;;;;;;;0.66;100.00;93404.19;5091078;28;19924;-83
2021/12/17 14:21:28;;;;;;;;;;;;;;;0.63;100.00;93403.69;5091152;28;20015;-82
2021/12/17 14:23:54;;;;;;;;;;;;;;;0.70;100.00;93396.31;5091033;28;19959;-83
2021/12/17 14:26:26;;;;;;;;;;;;;;;0.62;100.00;93399.56;5090703;28;19931;-82
2021/12/17 14:28:54;;;;;;;;;;;;;;;0.69;100.00;93402.31;5089135;28;19958;-83
2021/12/17 14:31:23;;;;;;;;;;;;;;;0.67;100.00;93399.94;5089359;28;19998;-82
2021/12/17 14:33:52;;;;;;;;;;;;;;;0.66;100.00;93404.19;5090480;28;19920;-82
2021/12/17 14:36:19;;;;;;;;;;;;;;;0.72;100.00;93397.78;5090735;28;19920;-82
2021/12/17 14:38:49;;;;;;;;;;;;;;;0.65;100.00;93386.66;5090343;28;19927;-83
2021/12/17 14:41:17;;;;;;;;;;;;;;;0.73;100.00;93394.31;5090528;28;20393;-82
2021/12/17 14:43:48;;;;;;;;;;;;;;;0.66;100.00;93386.50;5090588;28;19930;-82
2021/12/17 14:46:22;;;;;;;;;;;;;;;0.80;100.00;93389.47;5090932;28;19924;-83
2021/12/17 14:49:04;;;;;;;;;;;;;;;0.79;100.00;93382.81;5090749;28;19925;-82
2021/12/17 15:02:51;;;;;;;;;;;;;;;0.37;100.00;93399.34;5087429;28;19967;-83
2021/12/17 15:05:19;;;;;;;;;;;;;;;0.31;100.00;93399.88;5090152;28;19974;-83
2021/12/17 15:07:46;;;;;;;;;;;;;;;0.29;100.00;93396.72;5090152;28;19920;-83
2021/12/17 15:10:15;;;;;;;;;;;;;;;0.38;100.00;93399.19;5089968;28;19920;-83
2021/12/17 15:12:42;;;;;;;;;;;;;;;0.33;100.00;93396.28;5090114;28;19920;-82
2021/12/17 15:15:10;;;;;;;;;;;;;;;0.30;100.00;93400.81;5089781;28;19935;-82
2021/12/17 15:17:36;;;;;;;;;;;;;;;0.43;100.00;93408.06;5090345;28;19924;-82
2021/12/17 15:20:05;;;;;;;;;;;;;;;0.34;100.00;93407.19;5089961;28;19973;-82
2021/12/17 15:22:32;;;;;;;;;;;;;;;0.45;100.00;93404.47;5089758;28;20368;-83
2021/12/17 15:24:58;;;;;;;;;;;;;;;0.37;100.00;93412.75;5089869;28;20433;-83
2021/12/17 15:27:25;;;;;;;;;;;;;;;0.40;100.00;93416.72;5090120;28;19920;-83
2021/12/17 15:29:52;;;;;;;;;;;;;;;0.37;100.00;93415.28;5089996;28;19920;-81